sensor_id;sensor_type;location;lat;lon;timestamp;P1;durP1;ratioP1;P2;durP2;ratioP2
73382;SDS011;61600;48.126;11.542;2023-03-04T00:01:47;51.20;;;18.83;;
73382;SDS011;61600;48.126;11.542;2023-03-04T00:04:14;112.43;;;42.45;;
73382;SDS011;61600;48.126;11.542;2023-03-04T00:06:41;77.95;;;32.35;;
73382;SDS011;61600;48.126;11.542;2023-03-04T00:09:06;80.70;;;34.30;;
73382;SDS011;61600;48.126;11.542;2023-03-04T00:11:32;59.35;;;22.52;;
73382;SDS011;61600;48.126;11.542;2023-03-04T00:13:58;73.97;;;31.20;;
73382;SDS011;61600;48.126;11.542;2023-03-04T00:16:24;54.80;;;22.27;;
73382;SDS011;61600;48.126;11.542;2023-03-04T00:18:53;53.28;;;20.45;;
73382;SDS011;61600;48.126;11.542;2023-03-04T00:21:20;52.35;;;22.65;;
73382;SDS011;61600;48.126;11.542;2023-03-04T00:23:46;50.35;;;19.65;;
73382;SDS011;61600;48.126;11.542;2023-03-04T00:26:12;53.47;;;18.60;;
73382;SDS011;61600;48.126;11.542;2023-03-04T00:28:39;44.08;;;16.55;;
73382;SDS011;61600;48.126;11.542;2023-03-04T00:31:05;47.90;;;18.02;;
73382;SDS011;61600;48.126;11.542;2023-03-04T00:33:33;42.58;;;18.88;;
73382;SDS011;61600;48.126;11.542;2023-03-04T00:36:02;41.42;;;17.15;;
73382;SDS011;61600;48.126;11.542;2023-03-04T00:38:28;45.83;;;18.10;;
73382;SDS011;61600;48.126;11.542;2023-03-04T00:40:54;48.80;;;19.67;;
73382;SDS011;61600;48.126;11.542;2023-03-04T00:43:20;42.67;;;17.25;;
73382;SDS011;61600;48.126;11.542;2023-03-04T00:45:46;44.95;;;17.15;;
73382;SDS011;61600;48.126;11.542;2023-03-04T00:48:12;43.55;;;17.90;;
73382;SDS011;61600;48.126;11.542;2023-03-04T00:50:38;46.45;;;19.70;;
73382;SDS011;61600;48.126;11.542;2023-03-04T00:53:04;48.63;;;18.10;;
73382;SDS011;61600;48.126;11.542;2023-03-04T00:55:30;49.83;;;18.90;;
73382;SDS011;61600;48.126;11.542;2023-03-04T00:57:56;47.40;;;18.63;;
73382;SDS011;61600;48.126;11.542;2023-03-04T01:00:22;51.42;;;18.83;;
73382;SDS011;61600;48.126;11.542;2023-03-04T01:02:48;48.20;;;19.42;;
73382;SDS011;61600;48.126;11.542;2023-03-04T01:05:14;48.85;;;17.52;;
73382;SDS011;61600;48.126;11.542;2023-03-04T01:07:40;47.03;;;18.33;;
73382;SDS011;61600;48.126;11.542;2023-03-04T01:10:06;49.25;;;17.67;;
73382;SDS011;61600;48.126;11.542;2023-03-04T01:12:34;48.08;;;19.17;;
73382;SDS011;61600;48.126;11.542;2023-03-04T01:15:00;44.30;;;18.80;;
73382;SDS011;61600;48.126;11.542;2023-03-04T01:17:26;47.53;;;16.80;;
73382;SDS011;61600;48.126;11.542;2023-03-04T01:19:51;47.00;;;16.83;;
73382;SDS011;61600;48.126;11.542;2023-03-04T01:22:17;44.83;;;16.58;;
73382;SDS011;61600;48.126;11.542;2023-03-04T01:24:43;49.15;;;16.95;;
73382;SDS011;61600;48.126;11.542;2023-03-04T01:27:12;51.30;;;18.52;;
73382;SDS011;61600;48.126;11.542;2023-03-04T01:29:38;43.25;;;17.63;;
73382;SDS011;61600;48.126;11.542;2023-03-04T01:32:04;48.72;;;19.08;;
73382;SDS011;61600;48.126;11.542;2023-03-04T01:34:30;43.00;;;15.88;;
73382;SDS011;61600;48.126;11.542;2023-03-04T01:36:55;43.53;;;16.77;;
73382;SDS011;61600;48.126;11.542;2023-03-04T01:39:21;46.20;;;18.02;;
73382;SDS011;61600;48.126;11.542;2023-03-04T01:41:47;44.28;;;17.48;;
73382;SDS011;61600;48.126;11.542;2023-03-04T01:44:13;42.45;;;17.50;;
73382;SDS011;61600;48.126;11.542;2023-03-04T01:46:40;42.63;;;17.65;;
73382;SDS011;61600;48.126;11.542;2023-03-04T01:49:11;45.25;;;17.05;;
73382;SDS011;61600;48.126;11.542;2023-03-04T01:51:39;47.95;;;18.23;;
73382;SDS011;61600;48.126;11.542;2023-03-04T01:54:07;38.58;;;16.95;;
73382;SDS011;61600;48.126;11.542;2023-03-04T01:56:34;45.80;;;18.35;;
73382;SDS011;61600;48.126;11.542;2023-03-04T01:59:12;47.72;;;18.73;;
73382;SDS011;61600;48.126;11.542;2023-03-04T02:01:42;43.67;;;17.98;;
73382;SDS011;61600;48.126;11.542;2023-03-04T02:04:13;44.58;;;17.33;;
73382;SDS011;61600;48.126;11.542;2023-03-04T02:06:40;39.15;;;16.60;;
73382;SDS011;61600;48.126;11.542;2023-03-04T02:09:07;51.70;;;18.33;;
73382;SDS011;61600;48.126;11.542;2023-03-04T02:11:33;41.72;;;16.48;;
73382;SDS011;61600;48.126;11.542;2023-03-04T02:14:00;45.78;;;18.40;;
73382;SDS011;61600;48.126;11.542;2023-03-04T02:16:26;44.67;;;18.75;;
73382;SDS011;61600;48.126;11.542;2023-03-04T02:18:52;43.00;;;16.48;;
73382;SDS011;61600;48.126;11.542;2023-03-04T02:21:22;46.42;;;16.92;;
73382;SDS011;61600;48.126;11.542;2023-03-04T02:23:56;48.95;;;18.17;;
73382;SDS011;61600;48.126;11.542;2023-03-04T02:26:58;47.70;;;18.48;;
73382;SDS011;61600;48.126;11.542;2023-03-04T02:29:24;45.35;;;15.52;;
73382;SDS011;61600;48.126;11.542;2023-03-04T02:31:51;44.03;;;18.27;;
73382;SDS011;61600;48.126;11.542;2023-03-04T02:34:22;51.15;;;18.83;;
73382;SDS011;61600;48.126;11.542;2023-03-04T02:36:50;45.05;;;17.58;;
73382;SDS011;61600;48.126;11.542;2023-03-04T02:41:50;41.03;;;16.55;;
73382;SDS011;61600;48.126;11.542;2023-03-04T02:44:19;47.20;;;17.70;;
73382;SDS011;61600;48.126;11.542;2023-03-04T02:46:49;45.65;;;18.30;;
73382;SDS011;61600;48.126;11.542;2023-03-04T02:49:16;49.25;;;18.48;;
73382;SDS011;61600;48.126;11.542;2023-03-04T02:51:43;40.78;;;16.80;;
73382;SDS011;61600;48.126;11.542;2023-03-04T02:54:28;44.55;;;16.63;;
73382;SDS011;61600;48.126;11.542;2023-03-04T02:56:55;44.25;;;17.10;;
73382;SDS011;61600;48.126;11.542;2023-03-04T02:59:24;41.08;;;16.13;;
73382;SDS011;61600;48.126;11.542;2023-03-04T03:01:49;43.53;;;17.65;;
73382;SDS011;61600;48.126;11.542;2023-03-04T03:04:16;44.45;;;16.95;;
73382;SDS011;61600;48.126;11.542;2023-03-04T03:06:43;43.50;;;16.95;;
73382;SDS011;61600;48.126;11.542;2023-03-04T03:09:08;47.38;;;18.70;;
73382;SDS011;61600;48.126;11.542;2023-03-04T03:11:34;45.20;;;17.77;;
73382;SDS011;61600;48.126;11.542;2023-03-04T03:14:00;48.85;;;17.50;;
73382;SDS011;61600;48.126;11.542;2023-03-04T03:16:26;41.92;;;16.85;;
73382;SDS011;61600;48.126;11.542;2023-03-04T03:18:52;45.08;;;16.98;;
73382;SDS011;61600;48.126;11.542;2023-03-04T03:21:18;43.47;;;17.90;;
73382;SDS011;61600;48.126;11.542;2023-03-04T03:23:43;41.90;;;17.83;;
73382;SDS011;61600;48.126;11.542;2023-03-04T03:26:09;38.60;;;15.80;;
73382;SDS011;61600;48.126;11.542;2023-03-04T03:28:35;41.03;;;16.10;;
73382;SDS011;61600;48.126;11.542;2023-03-04T03:31:01;50.17;;;17.17;;
73382;SDS011;61600;48.126;11.542;2023-03-04T03:33:26;45.67;;;18.13;;
73382;SDS011;61600;48.126;11.542;2023-03-04T03:35:52;43.63;;;16.52;;
73382;SDS011;61600;48.126;11.542;2023-03-04T03:38:18;41.20;;;18.20;;
73382;SDS011;61600;48.126;11.542;2023-03-04T03:40:44;41.88;;;16.75;;
73382;SDS011;61600;48.126;11.542;2023-03-04T03:43:10;41.67;;;16.55;;
73382;SDS011;61600;48.126;11.542;2023-03-04T03:45:35;38.80;;;16.10;;
73382;SDS011;61600;48.126;11.542;2023-03-04T03:48:01;43.08;;;17.17;;
73382;SDS011;61600;48.126;11.542;2023-03-04T03:50:27;42.97;;;17.50;;
73382;SDS011;61600;48.126;11.542;2023-03-04T03:52:53;41.83;;;17.58;;
73382;SDS011;61600;48.126;11.542;2023-03-04T03:55:21;44.50;;;16.90;;
73382;SDS011;61600;48.126;11.542;2023-03-04T03:57:46;47.85;;;17.52;;
73382;SDS011;61600;48.126;11.542;2023-03-04T04:00:12;39.38;;;16.17;;
73382;SDS011;61600;48.126;11.542;2023-03-04T04:02:40;41.15;;;17.17;;
73382;SDS011;61600;48.126;11.542;2023-03-04T04:05:06;49.67;;;18.27;;
73382;SDS011;61600;48.126;11.542;2023-03-04T04:07:33;46.78;;;17.60;;
73382;SDS011;61600;48.126;11.542;2023-03-04T04:09:59;46.47;;;18.08;;
73382;SDS011;61600;48.126;11.542;2023-03-04T04:12:25;44.22;;;16.48;;
73382;SDS011;61600;48.126;11.542;2023-03-04T04:14:50;42.33;;;16.25;;
73382;SDS011;61600;48.126;11.542;2023-03-04T04:17:16;44.13;;;16.65;;
73382;SDS011;61600;48.126;11.542;2023-03-04T04:19:42;46.58;;;18.40;;
73382;SDS011;61600;48.126;11.542;2023-03-04T04:22:11;42.95;;;16.75;;
73382;SDS011;61600;48.126;11.542;2023-03-04T04:24:39;44.22;;;17.08;;
73382;SDS011;61600;48.126;11.542;2023-03-04T04:27:05;41.88;;;15.80;;
73382;SDS011;61600;48.126;11.542;2023-03-04T04:29:30;44.60;;;15.73;;
73382;SDS011;61600;48.126;11.542;2023-03-04T04:31:56;41.33;;;15.73;;
73382;SDS011;61600;48.126;11.542;2023-03-04T04:34:22;40.13;;;17.05;;
73382;SDS011;61600;48.126;11.542;2023-03-04T04:36:48;40.50;;;16.30;;
73382;SDS011;61600;48.126;11.542;2023-03-04T04:39:13;38.30;;;16.67;;
73382;SDS011;61600;48.126;11.542;2023-03-04T04:41:40;37.75;;;15.77;;
73382;SDS011;61600;48.126;11.542;2023-03-04T04:44:07;45.53;;;17.60;;
73382;SDS011;61600;48.126;11.542;2023-03-04T04:46:33;43.65;;;16.50;;
73382;SDS011;61600;48.126;11.542;2023-03-04T04:48:59;36.97;;;15.93;;
73382;SDS011;61600;48.126;11.542;2023-03-04T04:51:26;41.70;;;16.02;;
73382;SDS011;61600;48.126;11.542;2023-03-04T04:53:52;43.88;;;16.52;;
73382;SDS011;61600;48.126;11.542;2023-03-04T04:56:19;42.72;;;17.33;;
73382;SDS011;61600;48.126;11.542;2023-03-04T04:58:47;40.42;;;16.08;;
73382;SDS011;61600;48.126;11.542;2023-03-04T05:01:13;43.05;;;16.10;;
73382;SDS011;61600;48.126;11.542;2023-03-04T05:03:40;39.78;;;15.55;;
73382;SDS011;61600;48.126;11.542;2023-03-04T05:06:09;41.03;;;14.13;;
73382;SDS011;61600;48.126;11.542;2023-03-04T05:08:36;34.03;;;14.13;;
73382;SDS011;61600;48.126;11.542;2023-03-04T05:11:03;40.20;;;17.13;;
73382;SDS011;61600;48.126;11.542;2023-03-04T05:13:30;39.83;;;16.52;;
73382;SDS011;61600;48.126;11.542;2023-03-04T05:15:56;35.42;;;14.30;;
73382;SDS011;61600;48.126;11.542;2023-03-04T05:18:22;33.25;;;14.63;;
73382;SDS011;61600;48.126;11.542;2023-03-04T05:20:50;39.63;;;16.55;;
73382;SDS011;61600;48.126;11.542;2023-03-04T05:23:19;38.42;;;16.08;;
73382;SDS011;61600;48.126;11.542;2023-03-04T05:25:45;39.33;;;16.55;;
73382;SDS011;61600;48.126;11.542;2023-03-04T05:28:12;42.65;;;17.38;;
73382;SDS011;61600;48.126;11.542;2023-03-04T05:30:39;45.50;;;18.38;;
73382;SDS011;61600;48.126;11.542;2023-03-04T05:33:05;44.90;;;17.70;;
73382;SDS011;61600;48.126;11.542;2023-03-04T05:35:33;41.05;;;16.00;;
73382;SDS011;61600;48.126;11.542;2023-03-04T05:38:00;41.33;;;14.85;;
73382;SDS011;61600;48.126;11.542;2023-03-04T05:40:27;40.15;;;15.02;;
73382;SDS011;61600;48.126;11.542;2023-03-04T05:42:53;41.60;;;17.00;;
73382;SDS011;61600;48.126;11.542;2023-03-04T05:45:19;43.45;;;17.13;;
73382;SDS011;61600;48.126;11.542;2023-03-04T05:47:44;44.33;;;16.27;;
73382;SDS011;61600;48.126;11.542;2023-03-04T05:50:10;42.55;;;14.95;;
73382;SDS011;61600;48.126;11.542;2023-03-04T05:52:36;41.88;;;16.27;;
73382;SDS011;61600;48.126;11.542;2023-03-04T05:55:02;38.33;;;15.95;;
73382;SDS011;61600;48.126;11.542;2023-03-04T05:57:28;39.70;;;16.83;;
73382;SDS011;61600;48.126;11.542;2023-03-04T05:59:53;39.38;;;17.17;;
73382;SDS011;61600;48.126;11.542;2023-03-04T06:02:19;41.35;;;14.35;;
73382;SDS011;61600;48.126;11.542;2023-03-04T06:04:45;41.00;;;16.70;;
73382;SDS011;61600;48.126;11.542;2023-03-04T06:07:10;44.25;;;16.67;;
73382;SDS011;61600;48.126;11.542;2023-03-04T06:09:36;41.53;;;16.05;;
73382;SDS011;61600;48.126;11.542;2023-03-04T06:12:02;40.90;;;16.52;;
73382;SDS011;61600;48.126;11.542;2023-03-04T06:14:28;42.35;;;15.00;;
73382;SDS011;61600;48.126;11.542;2023-03-04T06:16:54;40.90;;;16.98;;
73382;SDS011;61600;48.126;11.542;2023-03-04T06:19:19;41.28;;;15.32;;
73382;SDS011;61600;48.126;11.542;2023-03-04T06:21:45;40.45;;;16.38;;
73382;SDS011;61600;48.126;11.542;2023-03-04T06:24:11;41.17;;;16.15;;
73382;SDS011;61600;48.126;11.542;2023-03-04T06:26:38;41.47;;;16.17;;
73382;SDS011;61600;48.126;11.542;2023-03-04T06:29:04;39.45;;;15.25;;
73382;SDS011;61600;48.126;11.542;2023-03-04T06:31:30;35.53;;;15.02;;
73382;SDS011;61600;48.126;11.542;2023-03-04T06:33:56;39.75;;;15.93;;
73382;SDS011;61600;48.126;11.542;2023-03-04T06:36:21;39.65;;;16.20;;
73382;SDS011;61600;48.126;11.542;2023-03-04T06:38:47;39.85;;;15.60;;
73382;SDS011;61600;48.126;11.542;2023-03-04T06:41:13;39.92;;;16.58;;
73382;SDS011;61600;48.126;11.542;2023-03-04T06:43:39;27.33;;;12.20;;
73382;SDS011;61600;48.126;11.542;2023-03-04T06:46:05;39.08;;;16.73;;
73382;SDS011;61600;48.126;11.542;2023-03-04T06:48:32;37.33;;;16.88;;
73382;SDS011;61600;48.126;11.542;2023-03-04T06:50:59;43.35;;;15.70;;
73382;SDS011;61600;48.126;11.542;2023-03-04T06:53:30;41.30;;;16.20;;
73382;SDS011;61600;48.126;11.542;2023-03-04T06:55:55;36.72;;;14.23;;
73382;SDS011;61600;48.126;11.542;2023-03-04T06:58:21;42.40;;;16.08;;
73382;SDS011;61600;48.126;11.542;2023-03-04T07:00:47;42.65;;;16.30;;
73382;SDS011;61600;48.126;11.542;2023-03-04T07:03:12;41.33;;;16.15;;
73382;SDS011;61600;48.126;11.542;2023-03-04T07:05:38;40.30;;;16.23;;
73382;SDS011;61600;48.126;11.542;2023-03-04T07:08:04;38.17;;;16.27;;
73382;SDS011;61600;48.126;11.542;2023-03-04T07:10:31;40.13;;;16.75;;
73382;SDS011;61600;48.126;11.542;2023-03-04T07:12:57;44.60;;;16.98;;
73382;SDS011;61600;48.126;11.542;2023-03-04T07:15:23;40.03;;;16.17;;
73382;SDS011;61600;48.126;11.542;2023-03-04T07:17:48;47.65;;;18.55;;
73382;SDS011;61600;48.126;11.542;2023-03-04T07:20:14;45.47;;;18.73;;
73382;SDS011;61600;48.126;11.542;2023-03-04T07:22:40;43.47;;;17.17;;
73382;SDS011;61600;48.126;11.542;2023-03-04T07:25:06;43.03;;;15.93;;
73382;SDS011;61600;48.126;11.542;2023-03-04T07:27:31;44.65;;;18.98;;
73382;SDS011;61600;48.126;11.542;2023-03-04T07:29:57;47.42;;;20.10;;
73382;SDS011;61600;48.126;11.542;2023-03-04T07:32:23;40.42;;;15.25;;
73382;SDS011;61600;48.126;11.542;2023-03-04T07:34:49;46.83;;;17.42;;
73382;SDS011;61600;48.126;11.542;2023-03-04T07:37:15;39.58;;;16.67;;
73382;SDS011;61600;48.126;11.542;2023-03-04T07:39:41;30.73;;;13.98;;
73382;SDS011;61600;48.126;11.542;2023-03-04T07:42:07;43.55;;;16.45;;
73382;SDS011;61600;48.126;11.542;2023-03-04T07:44:33;46.10;;;18.48;;
73382;SDS011;61600;48.126;11.542;2023-03-04T07:46:58;40.08;;;15.55;;
73382;SDS011;61600;48.126;11.542;2023-03-04T07:49:24;33.85;;;14.23;;
73382;SDS011;61600;48.126;11.542;2023-03-04T07:51:50;44.72;;;18.38;;
73382;SDS011;61600;48.126;11.542;2023-03-04T07:54:15;41.35;;;16.05;;
73382;SDS011;61600;48.126;11.542;2023-03-04T07:56:44;42.22;;;17.58;;
73382;SDS011;61600;48.126;11.542;2023-03-04T07:59:10;43.70;;;18.40;;
73382;SDS011;61600;48.126;11.542;2023-03-04T08:01:36;40.10;;;14.18;;
73382;SDS011;61600;48.126;11.542;2023-03-04T08:04:03;46.13;;;19.40;;
73382;SDS011;61600;48.126;11.542;2023-03-04T08:09:00;36.80;;;14.88;;
73382;SDS011;61600;48.126;11.542;2023-03-04T08:11:28;47.35;;;18.67;;
73382;SDS011;61600;48.126;11.542;2023-03-04T08:13:55;31.60;;;13.77;;
73382;SDS011;61600;48.126;11.542;2023-03-04T08:16:22;46.40;;;18.98;;
73382;SDS011;61600;48.126;11.542;2023-03-04T08:18:50;30.02;;;12.77;;
73382;SDS011;61600;48.126;11.542;2023-03-04T08:21:19;26.70;;;11.52;;
73382;SDS011;61600;48.126;11.542;2023-03-04T08:23:47;41.28;;;17.10;;
73382;SDS011;61600;48.126;11.542;2023-03-04T08:26:16;39.88;;;12.82;;
73382;SDS011;61600;48.126;11.542;2023-03-04T08:28:44;46.85;;;17.48;;
73382;SDS011;61600;48.126;11.542;2023-03-04T08:31:11;44.38;;;17.75;;
73382;SDS011;61600;48.126;11.542;2023-03-04T08:36:07;41.47;;;15.85;;
73382;SDS011;61600;48.126;11.542;2023-03-04T08:38:32;44.05;;;17.05;;
73382;SDS011;61600;48.126;11.542;2023-03-04T08:40:58;45.20;;;18.13;;
73382;SDS011;61600;48.126;11.542;2023-03-04T08:43:24;44.33;;;18.27;;
73382;SDS011;61600;48.126;11.542;2023-03-04T08:45:52;28.67;;;11.50;;
73382;SDS011;61600;48.126;11.542;2023-03-04T08:48:19;40.65;;;15.50;;
73382;SDS011;61600;48.126;11.542;2023-03-04T08:50:46;37.80;;;14.65;;
73382;SDS011;61600;48.126;11.542;2023-03-04T08:53:13;44.22;;;18.10;;
73382;SDS011;61600;48.126;11.542;2023-03-04T08:55:41;31.25;;;12.05;;
73382;SDS011;61600;48.126;11.542;2023-03-04T08:58:07;40.05;;;16.20;;
73382;SDS011;61600;48.126;11.542;2023-03-04T09:00:35;36.88;;;16.58;;
73382;SDS011;61600;48.126;11.542;2023-03-04T09:05:28;30.50;;;12.38;;
73382;SDS011;61600;48.126;11.542;2023-03-04T09:07:54;35.75;;;13.13;;
73382;SDS011;61600;48.126;11.542;2023-03-04T09:10:20;45.25;;;18.10;;
73382;SDS011;61600;48.126;11.542;2023-03-04T09:12:46;42.85;;;16.25;;
73382;SDS011;61600;48.126;11.542;2023-03-04T09:15:11;39.95;;;15.23;;
73382;SDS011;61600;48.126;11.542;2023-03-04T09:17:38;28.13;;;13.52;;
73382;SDS011;61600;48.126;11.542;2023-03-04T09:20:05;39.45;;;16.17;;
73382;SDS011;61600;48.126;11.542;2023-03-04T09:22:37;42.08;;;15.73;;
73382;SDS011;61600;48.126;11.542;2023-03-04T09:25:04;32.72;;;13.75;;
73382;SDS011;61600;48.126;11.542;2023-03-04T09:27:30;35.17;;;14.65;;
73382;SDS011;61600;48.126;11.542;2023-03-04T09:29:56;28.60;;;11.95;;
73382;SDS011;61600;48.126;11.542;2023-03-04T09:32:22;36.72;;;14.02;;
73382;SDS011;61600;48.126;11.542;2023-03-04T09:34:48;35.92;;;13.20;;
73382;SDS011;61600;48.126;11.542;2023-03-04T09:37:13;36.53;;;12.10;;
73382;SDS011;61600;48.126;11.542;2023-03-04T09:39:39;39.83;;;14.45;;
73382;SDS011;61600;48.126;11.542;2023-03-04T09:42:06;35.92;;;15.88;;
73382;SDS011;61600;48.126;11.542;2023-03-04T09:44:35;31.88;;;14.10;;
73382;SDS011;61600;48.126;11.542;2023-03-04T09:47:05;33.35;;;12.27;;
73382;SDS011;61600;48.126;11.542;2023-03-04T09:49:37;34.35;;;14.48;;
73382;SDS011;61600;48.126;11.542;2023-03-04T09:52:22;35.00;;;13.90;;
73382;SDS011;61600;48.126;11.542;2023-03-04T09:57:46;25.80;;;10.52;;
73382;SDS011;61600;48.126;11.542;2023-03-04T10:00:15;29.08;;;12.85;;
73382;SDS011;61600;48.126;11.542;2023-03-04T10:05:54;35.00;;;11.88;;
73382;SDS011;61600;48.126;11.542;2023-03-04T10:10:53;32.67;;;13.20;;
73382;SDS011;61600;48.126;11.542;2023-03-04T10:13:29;33.65;;;14.90;;
73382;SDS011;61600;48.126;11.542;2023-03-04T10:16:18;38.97;;;13.27;;
73382;SDS011;61600;48.126;11.542;2023-03-04T10:18:57;37.20;;;15.15;;
73382;SDS011;61600;48.126;11.542;2023-03-04T10:21:35;37.78;;;15.30;;
73382;SDS011;61600;48.126;11.542;2023-03-04T10:24:15;33.67;;;14.30;;
73382;SDS011;61600;48.126;11.542;2023-03-04T10:26:44;25.17;;;10.55;;
73382;SDS011;61600;48.126;11.542;2023-03-04T10:29:14;15.70;;;8.02;;
73382;SDS011;61600;48.126;11.542;2023-03-04T10:31:42;36.00;;;16.52;;
73382;SDS011;61600;48.126;11.542;2023-03-04T10:36:50;31.70;;;13.32;;
73382;SDS011;61600;48.126;11.542;2023-03-04T10:39:29;37.10;;;12.63;;
73382;SDS011;61600;48.126;11.542;2023-03-04T10:42:01;36.05;;;14.48;;
73382;SDS011;61600;48.126;11.542;2023-03-04T10:44:28;29.02;;;13.18;;
73382;SDS011;61600;48.126;11.542;2023-03-04T10:46:55;34.17;;;15.07;;
73382;SDS011;61600;48.126;11.542;2023-03-04T10:49:22;33.65;;;12.80;;
73382;SDS011;61600;48.126;11.542;2023-03-04T10:52:03;31.42;;;13.90;;
73382;SDS011;61600;48.126;11.542;2023-03-04T10:54:54;18.20;;;8.07;;
73382;SDS011;61600;48.126;11.542;2023-03-04T11:02:43;25.88;;;11.43;;
73382;SDS011;61600;48.126;11.542;2023-03-04T11:07:42;27.88;;;12.07;;
73382;SDS011;61600;48.126;11.542;2023-03-04T11:10:30;28.95;;;11.77;;
73382;SDS011;61600;48.126;11.542;2023-03-04T11:18:22;28.20;;;12.32;;
73382;SDS011;61600;48.126;11.542;2023-03-04T11:20:55;21.52;;;7.75;;
73382;SDS011;61600;48.126;11.542;2023-03-04T11:23:44;33.22;;;13.32;;
73382;SDS011;61600;48.126;11.542;2023-03-04T11:26:20;33.42;;;13.80;;
73382;SDS011;61600;48.126;11.542;2023-03-04T11:28:51;36.30;;;14.75;;
73382;SDS011;61600;48.126;11.542;2023-03-04T11:31:22;31.65;;;13.75;;
73382;SDS011;61600;48.126;11.542;2023-03-04T11:34:07;33.70;;;14.95;;
73382;SDS011;61600;48.126;11.542;2023-03-04T11:36:56;30.73;;;13.90;;
73382;SDS011;61600;48.126;11.542;2023-03-04T11:40:07;30.00;;;12.35;;
73382;SDS011;61600;48.126;11.542;2023-03-04T11:42:58;30.85;;;13.35;;
73382;SDS011;61600;48.126;11.542;2023-03-04T11:45:45;30.65;;;12.65;;
73382;SDS011;61600;48.126;11.542;2023-03-04T11:51:18;29.75;;;14.27;;
73382;SDS011;61600;48.126;11.542;2023-03-04T11:56:42;36.03;;;15.32;;
73382;SDS011;61600;48.126;11.542;2023-03-04T12:05:01;22.35;;;10.48;;
73382;SDS011;61600;48.126;11.542;2023-03-04T12:10:45;35.55;;;14.80;;
73382;SDS011;61600;48.126;11.542;2023-03-04T12:13:32;34.22;;;14.77;;
73382;SDS011;61600;48.126;11.542;2023-03-04T12:27:06;32.15;;;14.85;;
73382;SDS011;61600;48.126;11.542;2023-03-04T12:35:31;26.98;;;11.45;;
73382;SDS011;61600;48.126;11.542;2023-03-04T12:38:11;32.20;;;13.45;;
73382;SDS011;61600;48.126;11.542;2023-03-04T12:43:40;32.85;;;12.90;;
73382;SDS011;61600;48.126;11.542;2023-03-04T12:51:54;30.00;;;14.02;;
73382;SDS011;61600;48.126;11.542;2023-03-04T12:54:30;28.27;;;13.73;;
73382;SDS011;61600;48.126;11.542;2023-03-04T12:57:01;33.33;;;13.60;;
73382;SDS011;61600;48.126;11.542;2023-03-04T12:59:36;28.55;;;13.00;;
73382;SDS011;61600;48.126;11.542;2023-03-04T13:02:24;30.17;;;13.27;;
73382;SDS011;61600;48.126;11.542;2023-03-04T13:05:00;27.98;;;12.38;;
73382;SDS011;61600;48.126;11.542;2023-03-04T13:08:34;25.70;;;11.38;;
73382;SDS011;61600;48.126;11.542;2023-03-04T13:10:50;21.73;;;9.80;;
73382;SDS011;61600;48.126;11.542;2023-03-04T13:13:32;27.02;;;12.02;;
73382;SDS011;61600;48.126;11.542;2023-03-04T13:16:04;25.70;;;12.20;;
73382;SDS011;61600;48.126;11.542;2023-03-04T13:18:50;24.83;;;11.52;;
73382;SDS011;61600;48.126;11.542;2023-03-04T13:21:21;27.67;;;11.20;;
73382;SDS011;61600;48.126;11.542;2023-03-04T13:23:49;22.95;;;11.13;;
73382;SDS011;61600;48.126;11.542;2023-03-04T13:26:37;26.02;;;12.05;;
73382;SDS011;61600;48.126;11.542;2023-03-04T13:31:56;26.73;;;11.63;;
73382;SDS011;61600;48.126;11.542;2023-03-04T13:34:49;27.40;;;11.93;;
73382;SDS011;61600;48.126;11.542;2023-03-04T13:42:47;25.58;;;12.15;;
73382;SDS011;61600;48.126;11.542;2023-03-04T13:47:58;25.63;;;10.82;;
73382;SDS011;61600;48.126;11.542;2023-03-04T13:50:40;30.63;;;12.40;;
73382;SDS011;61600;48.126;11.542;2023-03-04T13:53:30;27.05;;;11.93;;
73382;SDS011;61600;48.126;11.542;2023-03-04T13:56:06;25.33;;;10.93;;
73382;SDS011;61600;48.126;11.542;2023-03-04T13:58:34;25.73;;;11.27;;
73382;SDS011;61600;48.126;11.542;2023-03-04T14:01:02;27.63;;;11.50;;
73382;SDS011;61600;48.126;11.542;2023-03-04T14:03:29;23.40;;;10.55;;
73382;SDS011;61600;48.126;11.542;2023-03-04T14:08:36;23.45;;;11.00;;
73382;SDS011;61600;48.126;11.542;2023-03-04T14:11:02;26.17;;;11.93;;
73382;SDS011;61600;48.126;11.542;2023-03-04T14:13:28;29.73;;;11.90;;
73382;SDS011;61600;48.126;11.542;2023-03-04T14:15:55;27.23;;;12.40;;
73382;SDS011;61600;48.126;11.542;2023-03-04T14:18:22;24.58;;;11.32;;
73382;SDS011;61600;48.126;11.542;2023-03-04T14:20:52;21.85;;;10.05;;
73382;SDS011;61600;48.126;11.542;2023-03-04T14:23:24;23.17;;;10.77;;
73382;SDS011;61600;48.126;11.542;2023-03-04T14:26:12;26.25;;;11.98;;
73382;SDS011;61600;48.126;11.542;2023-03-04T14:28:43;30.02;;;12.40;;
73382;SDS011;61600;48.126;11.542;2023-03-04T14:31:16;23.17;;;10.90;;
73382;SDS011;61600;48.126;11.542;2023-03-04T14:33:47;22.13;;;10.52;;
73382;SDS011;61600;48.126;11.542;2023-03-04T14:36:18;21.55;;;9.57;;
73382;SDS011;61600;48.126;11.542;2023-03-04T14:38:53;24.13;;;10.80;;
73382;SDS011;61600;48.126;11.542;2023-03-04T14:41:30;25.60;;;10.18;;
73382;SDS011;61600;48.126;11.542;2023-03-04T14:44:01;24.08;;;10.27;;
73382;SDS011;61600;48.126;11.542;2023-03-04T14:46:33;20.38;;;10.27;;
73382;SDS011;61600;48.126;11.542;2023-03-04T14:49:05;22.10;;;10.07;;
73382;SDS011;61600;48.126;11.542;2023-03-04T14:51:47;19.77;;;8.75;;
73382;SDS011;61600;48.126;11.542;2023-03-04T14:56:58;23.58;;;9.90;;
73382;SDS011;61600;48.126;11.542;2023-03-04T14:59:33;20.45;;;9.63;;
73382;SDS011;61600;48.126;11.542;2023-03-04T15:02:16;24.83;;;9.43;;
73382;SDS011;61600;48.126;11.542;2023-03-04T15:04:44;21.10;;;8.80;;
73382;SDS011;61600;48.126;11.542;2023-03-04T15:07:28;18.58;;;8.35;;
73382;SDS011;61600;48.126;11.542;2023-03-04T15:09:57;21.00;;;8.85;;
73382;SDS011;61600;48.126;11.542;2023-03-04T15:12:27;21.75;;;9.40;;
73382;SDS011;61600;48.126;11.542;2023-03-04T15:14:59;15.48;;;7.65;;
73382;SDS011;61600;48.126;11.542;2023-03-04T15:22:36;17.85;;;8.48;;
73382;SDS011;61600;48.126;11.542;2023-03-04T15:25:17;20.42;;;8.48;;
73382;SDS011;61600;48.126;11.542;2023-03-04T15:27:46;17.95;;;8.10;;
73382;SDS011;61600;48.126;11.542;2023-03-04T15:30:17;18.38;;;7.70;;
73382;SDS011;61600;48.126;11.542;2023-03-04T15:32:46;17.85;;;8.43;;
73382;SDS011;61600;48.126;11.542;2023-03-04T15:35:12;19.33;;;8.57;;
73382;SDS011;61600;48.126;11.542;2023-03-04T15:37:39;18.40;;;8.35;;
73382;SDS011;61600;48.126;11.542;2023-03-04T15:42:45;17.65;;;8.40;;
73382;SDS011;61600;48.126;11.542;2023-03-04T15:47:47;22.15;;;8.82;;
73382;SDS011;61600;48.126;11.542;2023-03-04T15:50:14;19.70;;;8.63;;
73382;SDS011;61600;48.126;11.542;2023-03-04T15:52:40;20.67;;;8.80;;
73382;SDS011;61600;48.126;11.542;2023-03-04T15:55:09;21.98;;;8.52;;
73382;SDS011;61600;48.126;11.542;2023-03-04T15:57:46;19.77;;;8.07;;
73382;SDS011;61600;48.126;11.542;2023-03-04T16:00:18;19.02;;;8.35;;
73382;SDS011;61600;48.126;11.542;2023-03-04T16:02:44;18.15;;;9.75;;
73382;SDS011;61600;48.126;11.542;2023-03-04T16:05:11;18.27;;;7.80;;